aviador You're here:

KTOI Decoded Metar

TROY in AL, USA
Report Time2017-07-24 15:53:00
UTC Time2017-07-24 16:43:59
Flight Rules mvfr MVFR
WindVRB at 05 kt
Visibility9999 m
Phenomena:N/A
Clouds:Broken 019 Hf
Expected CloudBase > 1,600 ft AGL from Temp-Dew spread
Ceiling1,900 ft
Temp28°C (ISA +14)
Dew Point24°C (79% RH)
Heat Index31.9°C
QNH1017 hPa
Density Alt2,231 ft
Elevation387 ft
Report Wrong Elevation
Raw Report
KTOI 241553Z AUTO VRB05KT 10SM BKN019 28/24 A3002 RMK AO2 SLP159
T02830244=

Extra information for KTOI:More info

Metar Taf Metar & Taf Last 4 Metars F.Rules Stats Wind Profile Meteogram Temp Stats Airport Information Weather charts Add Link Nearby VenuesMetar ALERT Operation Metar Decoded Social comments

AIRNAV info for KTOI